Main page
METAR-TAF:

METAR-TAF

Airports :

Melilla Airport

Melilla, Spain

latitude: 35-17N, longitude: 002-57W, elevation: 47 m

Current weather observation

The report was made 39 minutes ago, at 23:30 UTC
Wind 1 kt from variable directions
Temperature 21°C
Humidity 88%
Pressure 1019 hPa
Visibility 10 km or more

METAR: GEML 172330Z AUTO VRB01KT 9999 NCD 21/19 Q1019

Time: 02:09 (00:09 UTC)

Forecast

The report was made 4 hours and 9 minutes ago, at 20:00 UTC
Forecast valid from 17 at 21 UTC to 18 at 21 UTC
Wind 8 kt from the East/Northeast
Visibility 10 km or more
Scattered clouds at a height of 1000 ft
Scattered clouds at a height of 1800 ft
Probability 40% :
Temporary
from 17 at 21 UTC to 18 at 08 UTC
Visibility: 4000 m
Broken clouds at a height of 500 ft
mist
Temporary
from 17 at 22 UTC to 18 at 06 UTC
Wind 2 kt from variable directions

TAF: GEML 172000Z 1721/1821 07008KT 9999 SCT010 SCT018 TX26/1814Z TN19/1806Z PROB40 TEMPO 1721/1808 4000 BR BKN005 TEMPO 1722/1806 VRB02KT

Weather observations and forecasts of more than 4000 airports (METAR and TAF reports).

The available stations are represented by yellow and red dots on the map.

Hover mouse over dot to see the name of the station.

Then click to see weather observations and forecasts.

To change the map : click on the green buttons with a black cross to zoom in, on the green button with a dash to zoom out, or on the green arrows for adjacent maps.


METAR-TAF: